Vanderhoof, Canada
Current Conditions -  °F | °C
As of 3:00 PM on Thursday 27 Nov 2014 (Local Time) from CYQZ Reporting Station
Light Snow Light Snow  
Wind Chill:   Ceiling: 1300
Heat Index: 14°   Visibility: 1mi
Dew Point: 14°   Wind: 13mph
Humidity: 100%   Direction: 320°NW
Pressure: 29.63"   Gusts: 18mph
Location:  54.02°N, 124.02°W
Report Text: CYQZ 272300Z AUTO 32011G16KT 1SM -SN VV013 M10/M10 A2963 RMK SLP068
Loading
Personal Weather Stations






























Interactive Weather Map New forecast layout! Learn more

10-Day Weather Forecast

Advertisements
Track Severe Weather on mobile